createdAt,value
2022-08-17T00:00:03.749Z,90.27
2022-08-17T00:02:31.331Z,91.49
2022-08-17T00:05:04.055Z,91.45
2022-08-17T00:07:31.028Z,91.62
2022-08-17T00:09:58.116Z,90.78
2022-08-17T00:12:42.721Z,90.97
2022-08-17T00:15:13.606Z,89.85
2022-08-17T00:17:42.510Z,90.93
2022-08-17T00:20:12.070Z,92.97
2022-08-17T00:22:39.119Z,93.32
2022-08-17T00:25:13.075Z,93.17
2022-08-17T00:27:40.480Z,94.16
2022-08-17T00:30:11.506Z,94.21
2022-08-17T00:33:22.932Z,94.60
2022-08-17T00:35:35.132Z,96.23
2022-08-17T00:38:04.199Z,96.95
2022-08-17T00:40:44.507Z,97.12
2022-08-17T00:43:31.300Z,97.47
2022-08-17T00:46:01.654Z,97.13
2022-08-17T00:48:31.366Z,96.94
2022-08-17T00:51:18.138Z,97.22
2022-08-17T00:53:53.629Z,96.11
2022-08-17T00:56:33.321Z,96.62
2022-08-17T00:59:02.746Z,97.11
2022-08-17T01:01:30.306Z,97.33
2022-08-17T01:04:00.012Z,97.07
2022-08-17T01:06:28.339Z,96.50
2022-08-17T01:08:58.097Z,96.42
2022-08-17T01:11:26.545Z,97.47
2022-08-17T01:13:53.828Z,97.63
2022-08-17T01:16:29.174Z,97.51
2022-08-17T01:19:05.173Z,97.12
2022-08-17T01:21:58.453Z,97.50
2022-08-17T01:24:27.915Z,97.48
2022-08-17T01:26:57.715Z,95.97
2022-08-17T01:29:25.805Z,97.60
2022-08-17T01:31:57.192Z,97.85
2022-08-17T01:34:28.237Z,98.75
2022-08-17T01:37:09.545Z,99.66
2022-08-17T01:39:45.594Z,100.00
2022-08-17T01:42:53.831Z,100.00
2022-08-17T01:45:26.664Z,100.00
2022-08-17T01:47:54.492Z,100.00
2022-08-17T01:50:29.333Z,100.00
2022-08-17T01:53:15.528Z,100.00
2022-08-17T01:55:51.736Z,100.00
2022-08-17T01:58:20.259Z,100.00
2022-08-17T02:01:00.650Z,100.00
2022-08-17T02:03:30.419Z,100.00
2022-08-17T02:05:57.973Z,100.00
2022-08-17T02:08:38.873Z,100.00
2022-08-17T02:11:17.864Z,100.00
2022-08-17T02:13:57.971Z,100.00
2022-08-17T02:16:37.441Z,100.00
2022-08-17T02:19:12.712Z,100.00
2022-08-17T02:21:42.024Z,100.00
2022-08-17T02:24:15.686Z,100.00
2022-08-17T02:26:42.788Z,100.00
2022-08-17T02:29:09.844Z,100.00
2022-08-17T02:31:37.878Z,100.00
2022-08-17T02:34:05.468Z,100.00
2022-08-17T02:36:34.268Z,100.00
2022-08-17T02:39:05.275Z,100.00
2022-08-17T02:41:33.024Z,100.00
2022-08-17T02:44:00.611Z,100.00
2022-08-17T02:46:28.371Z,100.00
2022-08-17T02:48:55.771Z,100.00
2022-08-17T02:51:23.260Z,100.00
2022-08-17T02:53:50.297Z,100.00
2022-08-17T02:56:17.458Z,100.00
2022-08-17T02:58:44.429Z,100.00
2022-08-17T03:01:12.792Z,100.00
2022-08-17T03:03:40.989Z,100.00
2022-08-17T03:06:08.795Z,100.00
2022-08-17T03:08:37.451Z,100.00
2022-08-17T03:11:04.511Z,100.00
2022-08-17T03:13:31.507Z,100.00
2022-08-17T03:15:58.910Z,100.00
2022-08-17T03:18:27.970Z,100.00
2022-08-17T03:20:59.195Z,100.00
2022-08-17T03:23:27.600Z,100.00
2022-08-17T03:25:57.282Z,100.00
2022-08-17T03:28:25.163Z,100.00
2022-08-17T03:30:52.855Z,100.00
2022-08-17T03:33:20.015Z,100.00
2022-08-17T03:35:47.553Z,100.00
2022-08-17T03:38:17.377Z,100.00
2022-08-17T03:40:56.941Z,100.00
2022-08-17T03:43:32.594Z,100.00
2022-08-17T03:46:27.704Z,100.00
2022-08-17T03:49:15.462Z,100.00
2022-08-17T03:52:01.347Z,100.00
2022-08-17T03:54:46.918Z,100.00
2022-08-17T03:57:13.920Z,100.00
2022-08-17T03:59:41.051Z,100.00
2022-08-17T04:02:13.060Z,100.00
2022-08-17T04:04:40.284Z,98.88
2022-08-17T04:07:07.676Z,95.91
2022-08-17T04:09:35.019Z,93.44
2022-08-17T04:12:04.885Z,89.94
2022-08-17T04:14:45.993Z,86.62
2022-08-17T04:17:21.261Z,83.92
2022-08-17T04:19:48.293Z,81.59
2022-08-17T04:22:31.378Z,77.64
2022-08-17T04:25:08.046Z,74.75
2022-08-17T04:27:35.209Z,72.44
2022-08-17T04:30:03.183Z,68.30
2022-08-17T04:33:00.767Z,65.55
2022-08-17T04:35:21.693Z,61.99
2022-08-17T04:37:48.964Z,60.26
2022-08-17T04:40:35.449Z,58.88
2022-08-17T04:43:12.315Z,57.25
2022-08-17T04:45:55.281Z,56.04
2022-08-17T04:48:27.905Z,52.28
2022-08-17T04:51:10.163Z,51.68
2022-08-17T04:53:40.030Z,49.53
2022-08-17T04:56:08.099Z,47.82
2022-08-17T04:58:50.146Z,47.22
2022-08-17T05:01:23.857Z,46.11
2022-08-17T05:03:56.337Z,44.80
2022-08-17T05:06:24.173Z,41.73
2022-08-17T05:08:51.214Z,40.97
2022-08-17T05:11:18.481Z,41.49
2022-08-17T05:13:45.459Z,39.53
2022-08-17T05:16:12.591Z,38.96
2022-08-17T05:18:39.594Z,38.65
2022-08-17T05:21:07.075Z,38.93
2022-08-17T05:23:43.070Z,40.09
2022-08-17T05:26:25.760Z,41.60
2022-08-17T05:28:57.301Z,39.01
2022-08-17T05:31:29.558Z,37.51
2022-08-17T05:33:56.808Z,36.01
2022-08-17T05:36:41.742Z,35.33
2022-08-17T05:39:16.834Z,35.46
2022-08-17T05:41:47.919Z,34.49
2022-08-17T05:44:16.117Z,33.16
2022-08-17T05:46:52.006Z,32.55
2022-08-17T05:49:27.719Z,31.94
2022-08-17T05:52:26.992Z,30.97
2022-08-17T05:55:10.633Z,31.08
2022-08-17T05:58:18.714Z,38.92
2022-08-17T06:01:09.520Z,41.94
2022-08-17T06:04:10.367Z,43.00
2022-08-17T06:06:42.457Z,42.90
2022-08-17T06:09:35.087Z,41.39
2022-08-17T06:12:28.030Z,42.92
2022-08-17T06:15:16.117Z,43.98
2022-08-17T06:17:43.784Z,46.21
2022-08-17T06:20:15.982Z,46.78
2022-08-17T06:22:58.815Z,48.62
2022-08-17T06:25:49.803Z,50.19
2022-08-17T06:28:29.977Z,51.20
2022-08-17T06:31:06.717Z,50.40
2022-08-17T06:33:39.446Z,46.50
2022-08-17T06:36:16.138Z,47.46
2022-08-17T06:39:26.788Z,48.38
2022-08-17T06:42:03.361Z,48.41
2022-08-17T06:45:06.497Z,46.00
2022-08-17T06:47:47.512Z,47.54
2022-08-17T06:50:35.976Z,46.94
2022-08-17T06:53:19.755Z,42.98
2022-08-17T06:56:13.609Z,39.00
2022-08-17T06:58:43.717Z,36.60
2022-08-17T07:01:20.900Z,36.11
2022-08-17T07:03:55.704Z,35.03
2022-08-17T07:06:32.922Z,35.37
2022-08-17T07:09:35.543Z,31.46
2022-08-17T07:12:39.549Z,29.59
2022-08-17T07:15:20.589Z,28.82
2022-08-17T07:17:48.492Z,28.63
2022-08-17T07:20:21.223Z,27.97
2022-08-17T07:23:12.988Z,27.26
2022-08-17T07:25:40.176Z,30.40
2022-08-17T07:28:07.899Z,28.91
2022-08-17T07:30:49.235Z,29.06
2022-08-17T07:33:26.140Z,29.33
2022-08-17T07:35:53.647Z,30.92
2022-08-17T07:38:33.142Z,30.84
2022-08-17T07:41:07.285Z,29.33
2022-08-17T07:43:40.116Z,28.62
2022-08-17T07:46:53.219Z,31.05
2022-08-17T07:49:38.360Z,34.88
2022-08-17T07:52:47.446Z,36.56
2022-08-17T07:54:58.677Z,35.72
2022-08-17T07:57:36.163Z,34.89
2022-08-17T08:00:12.707Z,35.55
2022-08-17T08:02:57.807Z,34.79
2022-08-17T08:05:49.744Z,36.88
2022-08-17T08:08:33.724Z,34.57
2022-08-17T08:11:08.956Z,32.99
2022-08-17T08:13:43.879Z,32.14
2022-08-17T08:16:16.729Z,32.61
2022-08-17T08:18:55.529Z,32.88
2022-08-17T08:22:26.368Z,34.01
2022-08-17T08:25:25.467Z,33.97
2022-08-17T08:28:07.436Z,32.76
2022-08-17T08:30:46.696Z,32.46
2022-08-17T08:33:32.029Z,32.52
2022-08-17T08:37:02.149Z,34.05
2022-08-17T08:39:39.896Z,35.23
2022-08-17T08:42:27.508Z,35.95
2022-08-17T08:45:24.791Z,36.50
2022-08-17T08:48:07.026Z,37.97
2022-08-17T08:51:00.837Z,37.52
2022-08-17T08:54:11.954Z,37.55
2022-08-17T08:57:21.578Z,36.27
2022-08-17T09:00:16.227Z,36.95
2022-08-17T09:03:07.352Z,36.99
2022-08-17T09:06:39.590Z,37.00
2022-08-17T09:09:32.942Z,36.70
2022-08-17T09:12:21.720Z,36.19
2022-08-17T09:15:01.249Z,36.17
2022-08-17T09:18:14.611Z,34.44
2022-08-17T09:20:54.042Z,35.93
2022-08-17T09:23:59.474Z,35.93
2022-08-17T09:26:54.453Z,36.85
2022-08-17T09:29:26.410Z,35.95
2022-08-17T09:32:03.612Z,35.02
2022-08-17T09:34:52.643Z,37.40
2022-08-17T09:37:58.361Z,37.77
2022-08-17T09:40:49.766Z,38.71
2022-08-17T09:43:55.321Z,38.10
2022-08-17T09:46:31.098Z,38.68
2022-08-17T09:49:10.663Z,36.97
2022-08-17T09:51:58.072Z,36.43
2022-08-17T09:54:41.117Z,36.93
2022-08-17T09:57:32.316Z,36.68
2022-08-17T10:00:13.422Z,36.14
2022-08-17T10:02:55.216Z,36.33
2022-08-17T10:05:51.279Z,36.24
2022-08-17T10:08:23.489Z,34.95
2022-08-17T10:11:08.220Z,35.92
2022-08-17T10:14:02.242Z,35.94
2022-08-17T10:17:04.183Z,36.97
2022-08-17T10:19:53.287Z,35.20
2022-08-17T10:22:55.139Z,34.68
2022-08-17T10:25:54.741Z,35.55
2022-08-17T10:28:31.506Z,34.66
2022-08-17T10:31:33.125Z,35.90
2022-08-17T10:34:53.470Z,36.28
2022-08-17T10:37:28.277Z,36.05
2022-08-17T10:40:19.829Z,36.08
2022-08-17T10:43:17.240Z,36.27
2022-08-17T10:46:39.553Z,37.55
2022-08-17T10:49:18.587Z,37.56
2022-08-17T10:51:54.359Z,35.89
2022-08-17T10:54:24.328Z,35.38
2022-08-17T10:56:56.759Z,37.73
2022-08-17T10:59:35.981Z,36.56
2022-08-17T11:02:18.991Z,35.77
2022-08-17T11:05:03.247Z,36.67
2022-08-17T11:08:17.928Z,38.38
2022-08-17T11:11:20.227Z,37.55
2022-08-17T11:14:13.865Z,36.87
2022-08-17T11:17:31.770Z,37.27
2022-08-17T11:20:35.813Z,37.37
2022-08-17T11:23:31.726Z,37.44
2022-08-17T11:26:04.193Z,37.87
2022-08-17T11:28:50.365Z,36.57
2022-08-17T11:31:39.970Z,37.13
2022-08-17T11:34:19.771Z,38.13
2022-08-17T11:37:36.269Z,38.45
2022-08-17T11:40:46.449Z,38.20
2022-08-17T11:43:56.020Z,38.81
2022-08-17T11:47:18.119Z,38.22
2022-08-17T11:50:38.659Z,39.11
2022-08-17T11:53:06.577Z,38.70
2022-08-17T11:55:37.538Z,39.14
2022-08-17T11:58:29.324Z,38.37
2022-08-17T12:01:02.120Z,37.94
2022-08-17T12:03:32.031Z,38.40
2022-08-17T12:06:19.889Z,39.04
2022-08-17T12:09:01.477Z,37.75
2022-08-17T12:11:55.125Z,37.69
2022-08-17T12:15:05.937Z,38.05
2022-08-17T12:17:41.206Z,38.16
2022-08-17T12:20:40.288Z,39.42
2022-08-17T12:23:32.932Z,39.41
2022-08-17T12:26:11.839Z,39.70
2022-08-17T12:28:44.254Z,40.50
2022-08-17T12:31:27.211Z,40.21
2022-08-17T12:33:54.679Z,39.98
2022-08-17T12:36:28.470Z,39.33
2022-08-17T12:39:12.797Z,38.81
2022-08-17T12:41:44.933Z,39.40
2022-08-17T12:44:12.325Z,39.83
2022-08-17T12:47:22.772Z,41.58
2022-08-17T12:49:54.010Z,41.59
2022-08-17T12:52:29.407Z,42.14
2022-08-17T12:55:06.989Z,41.86
2022-08-17T12:57:46.946Z,42.65
2022-08-17T13:00:35.219Z,42.98
2022-08-17T13:03:13.351Z,41.98
2022-08-17T13:05:54.278Z,41.67
2022-08-17T13:08:36.725Z,42.77
2022-08-17T13:11:18.510Z,42.38
2022-08-17T13:13:56.089Z,42.28
2022-08-17T13:16:28.320Z,42.29
2022-08-17T13:19:39.857Z,42.29
2022-08-17T13:22:12.783Z,41.67
2022-08-17T13:24:58.261Z,41.15
2022-08-17T13:27:29.169Z,41.34
2022-08-17T13:30:00.985Z,42.11
2022-08-17T13:32:31.102Z,42.52
2022-08-17T13:35:15.510Z,41.05
2022-08-17T13:38:08.639Z,41.41
2022-08-17T13:40:53.473Z,41.26
2022-08-17T13:43:50.558Z,42.24
2022-08-17T13:46:26.632Z,41.62
2022-08-17T13:49:09.807Z,40.73
2022-08-17T13:51:44.903Z,41.75
2022-08-17T13:54:51.165Z,41.53
2022-08-17T13:57:25.191Z,41.04
2022-08-17T14:00:17.931Z,41.61
2022-08-17T14:02:44.909Z,41.42
2022-08-17T14:05:11.893Z,40.57
2022-08-17T14:07:40.832Z,39.81
2022-08-17T14:10:17.887Z,40.38
2022-08-17T14:12:45.808Z,40.47
2022-08-17T14:15:16.939Z,40.44
2022-08-17T14:17:44.404Z,40.14
2022-08-17T14:20:13.191Z,40.60
2022-08-17T14:22:46.403Z,40.39
2022-08-17T14:25:22.988Z,39.32
2022-08-17T14:27:52.977Z,39.41
2022-08-17T14:30:25.699Z,40.73
2022-08-17T14:32:54.826Z,41.97
2022-08-17T14:35:23.918Z,42.16
2022-08-17T14:37:52.735Z,42.44
2022-08-17T14:40:22.657Z,41.94
2022-08-17T14:42:50.038Z,41.39
2022-08-17T14:45:31.926Z,41.67
2022-08-17T14:48:04.116Z,42.08
2022-08-17T14:50:31.839Z,42.52
2022-08-17T14:52:59.176Z,42.81
2022-08-17T14:55:28.409Z,42.98
2022-08-17T14:57:55.366Z,42.55
2022-08-17T15:00:22.610Z,42.65
2022-08-17T15:02:58.118Z,42.81
2022-08-17T15:05:33.641Z,43.34
2022-08-17T15:08:02.588Z,43.88
2022-08-17T15:10:30.703Z,44.00
2022-08-17T15:12:58.484Z,43.77
2022-08-17T15:15:26.313Z,44.41
2022-08-17T15:17:53.388Z,44.65
2022-08-17T15:20:27.956Z,43.76
2022-08-17T15:22:56.113Z,44.23
2022-08-17T15:25:25.906Z,44.22
2022-08-17T15:27:53.775Z,44.14
2022-08-17T15:30:21.474Z,45.79
2022-08-17T15:32:54.470Z,45.74
2022-08-17T15:35:27.514Z,45.04
2022-08-17T15:38:11.579Z,45.52
2022-08-17T15:40:44.310Z,45.26
2022-08-17T15:43:27.291Z,45.49
2022-08-17T15:46:05.698Z,45.13
2022-08-17T15:48:42.105Z,45.36
2022-08-17T15:51:18.132Z,45.43
2022-08-17T15:53:52.262Z,45.22
2022-08-17T15:56:19.938Z,45.68
2022-08-17T15:58:49.140Z,45.93
2022-08-17T16:03:14.371Z,45.66
2022-08-17T16:04:27.244Z,45.15
2022-08-17T16:10:55.501Z,46.23
2022-08-17T16:13:24.108Z,47.26
2022-08-17T16:15:57.305Z,46.72
2022-08-17T16:18:31.037Z,47.37
2022-08-17T16:21:24.244Z,47.44
2022-08-17T16:24:04.603Z,48.87
2022-08-17T16:26:33.612Z,48.67
2022-08-17T16:29:04.372Z,48.66
2022-08-17T16:31:32.313Z,48.40
2022-08-17T16:34:17.876Z,48.42
2022-08-17T16:36:55.044Z,48.63
2022-08-17T16:39:26.488Z,49.20
2022-08-17T16:41:53.615Z,49.38
2022-08-17T16:44:21.793Z,49.77
2022-08-17T16:46:50.440Z,49.66
2022-08-17T16:49:25.711Z,49.74
2022-08-17T16:52:06.244Z,50.29
2022-08-17T16:54:35.492Z,49.89
2022-08-17T16:57:05.247Z,49.83
2022-08-17T16:59:42.162Z,50.60
2022-08-17T17:02:14.048Z,50.53
2022-08-17T17:05:00.064Z,51.39
2022-08-17T17:08:12.838Z,51.69
2022-08-17T17:10:52.720Z,51.79
2022-08-17T17:13:50.848Z,53.36
2022-08-17T17:17:01.073Z,52.19
2022-08-17T17:19:35.827Z,53.24
2022-08-17T17:22:18.860Z,53.45
2022-08-17T17:25:07.563Z,54.12
2022-08-17T17:27:53.180Z,54.07
2022-08-17T17:30:48.392Z,54.68
2022-08-17T17:34:03.857Z,53.82
2022-08-17T17:36:40.864Z,54.98
2022-08-17T17:39:17.686Z,55.96
2022-08-17T17:41:58.903Z,56.08
2022-08-17T17:44:33.202Z,56.57
2022-08-17T17:47:03.897Z,56.82
2022-08-17T17:49:38.854Z,57.05
2022-08-17T17:53:08.928Z,57.25
2022-08-17T17:55:51.805Z,56.93
2022-08-17T17:58:42.637Z,57.76
2022-08-17T18:01:28.448Z,57.51
2022-08-17T18:04:32.657Z,58.13
2022-08-17T18:07:33.988Z,59.17
2022-08-17T18:10:30.104Z,60.05
2022-08-17T18:13:53.399Z,60.67
2022-08-17T18:16:20.674Z,61.30
2022-08-17T18:18:50.080Z,61.17
2022-08-17T18:21:29.247Z,62.02
2022-08-17T18:24:02.881Z,63.01
2022-08-17T18:26:52.667Z,62.72
2022-08-17T18:29:28.030Z,63.08
2022-08-17T18:32:15.328Z,63.09
2022-08-17T18:34:47.725Z,63.83
2022-08-17T18:37:40.872Z,64.07
2022-08-17T18:40:17.017Z,64.47
2022-08-17T18:43:10.370Z,64.48
2022-08-17T18:45:50.198Z,64.63
2022-08-17T18:48:41.966Z,64.99
2022-08-17T18:51:42.892Z,65.09
2022-08-17T18:54:19.364Z,65.08
2022-08-17T18:56:59.178Z,65.93
2022-08-17T18:59:41.352Z,65.88
2022-08-17T19:02:20.713Z,65.08
2022-08-17T19:05:10.606Z,65.13
2022-08-17T19:07:47.444Z,65.78
2022-08-17T19:10:28.809Z,66.03
2022-08-17T19:13:23.953Z,66.55
2022-08-17T19:16:20.271Z,65.79
2022-08-17T19:19:49.378Z,66.64
2022-08-17T19:22:30.931Z,67.41
2022-08-17T19:25:16.046Z,67.46
2022-08-17T19:27:57.293Z,66.87
2022-08-17T19:30:25.187Z,66.84
2022-08-17T19:32:53.112Z,66.18
2022-08-17T19:35:22.910Z,66.69
2022-08-17T19:38:15.752Z,66.89
2022-08-17T19:41:34.093Z,67.83
2022-08-17T19:44:19.067Z,68.31
2022-08-17T19:47:19.580Z,69.47
2022-08-17T19:50:11.373Z,70.27
2022-08-17T19:52:52.800Z,69.76
2022-08-17T19:55:43.563Z,69.93
2022-08-17T19:58:40.060Z,70.24
2022-08-17T20:01:13.908Z,69.39
2022-08-17T20:04:31.830Z,68.99
2022-08-17T20:07:26.222Z,69.67
2022-08-17T20:10:12.004Z,70.47
2022-08-17T20:12:42.656Z,70.35
2022-08-17T20:15:17.853Z,70.40
2022-08-17T20:17:47.635Z,70.26
2022-08-17T20:20:57.714Z,70.34
2022-08-17T20:24:04.619Z,70.89
2022-08-17T20:27:17.995Z,70.10
2022-08-17T20:30:29.697Z,70.21
2022-08-17T20:32:58.984Z,69.25
2022-08-17T20:35:38.924Z,69.92
2022-08-17T20:38:41.913Z,70.38
2022-08-17T20:41:22.443Z,69.48
2022-08-17T20:43:59.022Z,69.39
2022-08-17T20:46:38.286Z,70.65
2022-08-17T20:49:14.598Z,71.01
2022-08-17T20:52:01.429Z,70.24
2022-08-17T20:54:53.830Z,71.17
2022-08-17T20:57:32.820Z,71.15
2022-08-17T21:00:17.125Z,71.37
2022-08-17T21:02:50.610Z,71.46
2022-08-17T21:06:00.438Z,70.63
2022-08-17T21:08:35.892Z,70.28
2022-08-17T21:12:03.262Z,71.09
2022-08-17T21:14:34.176Z,71.84
2022-08-17T21:17:26.400Z,71.70
2022-08-17T21:20:32.270Z,72.12
2022-08-17T21:23:13.759Z,71.67
2022-08-17T21:26:14.446Z,71.34
2022-08-17T21:29:31.020Z,71.20
2022-08-17T21:31:59.536Z,71.07
2022-08-17T21:34:35.613Z,70.45
2022-08-17T21:37:22.291Z,70.37
2022-08-17T21:40:01.764Z,70.93
2022-08-17T21:42:36.069Z,70.82
2022-08-17T21:45:32.191Z,72.06
2022-08-17T21:48:27.430Z,72.01
2022-08-17T21:51:10.573Z,72.21
2022-08-17T21:53:51.461Z,72.32
2022-08-17T21:56:35.098Z,72.59
2022-08-17T21:59:34.721Z,72.76
2022-08-17T22:02:28.433Z,73.46
2022-08-17T22:05:02.906Z,73.23
2022-08-17T22:07:46.389Z,73.53
2022-08-17T22:10:42.344Z,74.69
2022-08-17T22:13:22.216Z,76.20
2022-08-17T22:16:28.164Z,75.45
2022-08-17T22:18:59.013Z,76.39
2022-08-17T22:21:26.365Z,77.12
2022-08-17T22:24:07.352Z,77.00
2022-08-17T22:27:07.556Z,77.88
2022-08-17T22:29:58.402Z,79.99
2022-08-17T22:32:41.529Z,79.85
2022-08-17T22:35:34.995Z,79.58
2022-08-17T22:38:20.246Z,79.89
2022-08-17T22:40:53.973Z,80.16
2022-08-17T22:43:26.423Z,79.71
2022-08-17T22:45:58.672Z,79.23
2022-08-17T22:48:29.655Z,79.98
2022-08-17T22:51:12.612Z,80.07
2022-08-17T22:54:13.147Z,80.63
2022-08-17T22:57:31.603Z,80.44
2022-08-17T23:00:00.254Z,80.65
2022-08-17T23:02:34.152Z,81.08
2022-08-17T23:05:13.071Z,81.47
2022-08-17T23:07:42.503Z,81.13
2022-08-17T23:10:11.776Z,81.73
2022-08-17T23:12:39.980Z,83.54
2022-08-17T23:15:19.114Z,83.71
2022-08-17T23:17:46.460Z,83.53
2022-08-17T23:20:17.931Z,84.44
2022-08-17T23:22:51.308Z,83.94
2022-08-17T23:25:33.654Z,84.55
2022-08-17T23:28:03.546Z,85.93
2022-08-17T23:30:39.424Z,86.33
2022-08-17T23:33:19.889Z,86.23
2022-08-17T23:35:46.999Z,85.61
2022-08-17T23:38:14.329Z,85.65
2022-08-17T23:40:41.628Z,85.21
2022-08-17T23:43:23.416Z,85.92
2022-08-17T23:46:00.783Z,85.98
2022-08-17T23:48:35.043Z,85.66
2022-08-17T23:51:19.079Z,85.45
2022-08-17T23:53:58.229Z,85.41
2022-08-17T23:56:26.014Z,84.90
2022-08-17T23:58:55.404Z,84.88
